createdAt,value
2022-10-09T00:00:41.659Z,9.48
2022-10-09T00:03:29.229Z,9.63
2022-10-09T00:06:16.772Z,9.38
2022-10-09T00:09:04.341Z,9.49
2022-10-09T00:11:51.908Z,9.38
2022-10-09T00:14:39.462Z,9.48
2022-10-09T00:17:27.011Z,9.48
2022-10-09T00:20:14.813Z,9.49
2022-10-09T00:23:02.449Z,9.65
2022-10-09T00:25:50.069Z,9.43
2022-10-09T00:28:38.834Z,9.52
2022-10-09T00:31:26.622Z,9.30
2022-10-09T00:34:14.165Z,9.50
2022-10-09T00:37:01.746Z,9.48
2022-10-09T00:39:49.307Z,9.47
2022-10-09T00:42:36.877Z,9.66
2022-10-09T00:45:24.442Z,9.43
2022-10-09T00:48:14.008Z,9.60
2022-10-09T00:51:01.558Z,9.65
2022-10-09T00:53:49.114Z,9.64
2022-10-09T00:56:36.664Z,9.52
2022-10-09T00:59:24.220Z,9.56
2022-10-09T01:02:11.794Z,9.53
2022-10-09T01:04:59.411Z,9.50
2022-10-09T01:07:46.958Z,9.40
2022-10-09T01:10:34.528Z,9.36
2022-10-09T01:13:22.105Z,9.42
2022-10-09T01:16:09.799Z,9.29
2022-10-09T01:18:57.438Z,9.42
2022-10-09T01:21:45.097Z,9.27
2022-10-09T01:24:32.659Z,9.39
2022-10-09T01:27:20.222Z,9.55
2022-10-09T01:30:07.818Z,9.40
2022-10-09T01:32:55.389Z,9.40
2022-10-09T01:35:42.956Z,9.54
2022-10-09T01:38:30.521Z,9.36
2022-10-09T01:41:18.108Z,9.42
2022-10-09T01:44:05.661Z,9.27
2022-10-09T01:46:53.226Z,9.08
2022-10-09T01:49:40.811Z,9.13
2022-10-09T01:52:28.369Z,9.09
2022-10-09T01:55:15.929Z,9.01
2022-10-09T01:58:03.485Z,9.01
2022-10-09T02:00:52.100Z,8.89
2022-10-09T02:03:39.644Z,8.94
2022-10-09T02:06:27.210Z,8.93
2022-10-09T02:09:14.758Z,8.98
2022-10-09T02:12:02.331Z,8.87
2022-10-09T02:14:49.891Z,8.94
2022-10-09T02:17:37.460Z,8.87
2022-10-09T02:20:25.021Z,8.70
2022-10-09T02:23:12.584Z,8.67
2022-10-09T02:26:00.146Z,8.78
2022-10-09T02:28:47.813Z,8.66
2022-10-09T02:31:35.552Z,8.59
2022-10-09T02:34:23.111Z,8.64
2022-10-09T02:37:10.657Z,8.76
2022-10-09T02:39:58.233Z,8.58
2022-10-09T02:42:45.899Z,8.56
2022-10-09T02:45:33.610Z,8.62
2022-10-09T02:48:21.166Z,8.64
2022-10-09T02:51:08.735Z,8.62
2022-10-09T02:53:56.289Z,8.54
2022-10-09T02:56:43.850Z,8.65
2022-10-09T02:59:31.384Z,8.65
2022-10-09T03:02:19.166Z,8.60
2022-10-09T03:05:08.777Z,8.40
2022-10-09T03:07:56.345Z,8.42
2022-10-09T03:10:43.880Z,8.43
2022-10-09T03:13:31.446Z,8.37
2022-10-09T03:16:19.041Z,8.49
2022-10-09T03:19:06.658Z,8.37
2022-10-09T03:21:54.184Z,8.39
2022-10-09T03:24:41.749Z,8.32
2022-10-09T03:27:29.286Z,8.29
2022-10-09T03:30:16.847Z,8.46
2022-10-09T03:33:04.398Z,8.44
2022-10-09T03:35:52.061Z,8.51
2022-10-09T03:38:41.580Z,8.55
2022-10-09T03:41:29.144Z,8.63
2022-10-09T03:44:16.690Z,8.88
2022-10-09T03:47:04.319Z,9.15
2022-10-09T03:49:51.931Z,9.22
2022-10-09T03:52:39.500Z,9.30
2022-10-09T03:55:27.038Z,9.47
2022-10-09T03:58:14.602Z,9.45
2022-10-09T04:01:02.205Z,9.48
2022-10-09T04:03:49.821Z,9.36
2022-10-09T04:06:37.361Z,9.52
2022-10-09T04:09:24.924Z,9.54
2022-10-09T04:12:12.463Z,9.45
2022-10-09T04:15:00.035Z,9.58
2022-10-09T04:17:47.577Z,9.69
2022-10-09T04:20:35.147Z,9.63
2022-10-09T04:23:22.684Z,9.65
2022-10-09T04:26:10.257Z,9.72
2022-10-09T04:28:57.802Z,9.55
2022-10-09T04:31:45.411Z,9.70
2022-10-09T04:34:32.995Z,9.59
2022-10-09T04:37:20.543Z,9.61
2022-10-09T04:40:08.172Z,9.47
2022-10-09T04:42:55.714Z,9.69
2022-10-09T04:45:43.330Z,9.38
2022-10-09T04:48:30.921Z,9.43
2022-10-09T04:51:18.486Z,9.55
2022-10-09T04:54:06.033Z,9.57
2022-10-09T04:56:53.602Z,9.58
2022-10-09T04:59:41.166Z,9.20
2022-10-09T05:02:28.750Z,9.32
2022-10-09T05:05:16.356Z,9.30
2022-10-09T05:08:03.893Z,9.62
2022-10-09T05:10:51.456Z,9.57
2022-10-09T05:13:38.995Z,9.38
2022-10-09T05:16:26.593Z,9.20
2022-10-09T05:19:14.740Z,9.62
2022-10-09T05:22:02.288Z,9.14
2022-10-09T05:24:49.830Z,9.22
2022-10-09T05:27:37.381Z,9.11
2022-10-09T05:30:24.933Z,9.35
2022-10-09T05:33:12.507Z,9.21
2022-10-09T05:36:00.036Z,9.66
2022-10-09T05:38:47.605Z,9.27
2022-10-09T05:41:35.282Z,9.43
2022-10-09T05:44:22.826Z,9.47
2022-10-09T05:47:10.373Z,9.62
2022-10-09T05:49:57.904Z,10.21
2022-10-09T05:52:45.467Z,10.15
2022-10-09T05:55:33.045Z,10.09
2022-10-09T05:58:20.703Z,10.07
2022-10-09T06:01:08.293Z,10.47
2022-10-09T06:03:55.882Z,10.60
2022-10-09T06:06:43.438Z,10.14
2022-10-09T06:09:31.001Z,9.93
2022-10-09T06:12:18.557Z,10.09
2022-10-09T06:15:06.100Z,9.79
2022-10-09T06:17:53.649Z,10.00
2022-10-09T06:20:41.212Z,10.13
2022-10-09T06:23:28.744Z,10.19
2022-10-09T06:26:16.318Z,10.41
2022-10-09T06:29:03.867Z,10.14
2022-10-09T06:31:51.429Z,9.88
2022-10-09T06:34:38.990Z,9.80
2022-10-09T06:37:26.537Z,9.80
2022-10-09T06:40:16.095Z,9.64
2022-10-09T06:43:03.636Z,9.52
2022-10-09T06:45:51.337Z,9.20
2022-10-09T06:48:38.919Z,9.27
2022-10-09T06:51:26.479Z,9.20
2022-10-09T06:54:14.024Z,9.17
2022-10-09T06:57:01.589Z,9.16
2022-10-09T06:59:49.144Z,9.16
2022-10-09T07:02:41.778Z,9.25
2022-10-09T07:05:31.384Z,9.20
2022-10-09T07:08:18.947Z,9.26
2022-10-09T07:11:06.494Z,9.20
2022-10-09T07:13:54.049Z,9.27
2022-10-09T07:16:41.583Z,9.39
2022-10-09T07:19:29.160Z,9.52
2022-10-09T07:22:16.718Z,9.42
2022-10-09T07:25:04.269Z,9.39
2022-10-09T07:27:51.823Z,9.41
2022-10-09T07:30:39.435Z,9.44
2022-10-09T07:33:27.006Z,9.61
2022-10-09T07:36:14.676Z,9.64
2022-10-09T07:39:02.204Z,9.79
2022-10-09T07:41:49.773Z,9.75
2022-10-09T07:44:37.308Z,9.67
2022-10-09T07:47:24.965Z,9.60
2022-10-09T07:50:12.528Z,9.69
2022-10-09T07:53:00.085Z,9.81
2022-10-09T07:55:47.618Z,9.56
2022-10-09T07:58:35.200Z,9.73
2022-10-09T08:01:22.807Z,9.77
2022-10-09T08:04:10.446Z,9.85
2022-10-09T08:06:57.975Z,9.85
2022-10-09T08:09:45.611Z,9.95
2022-10-09T08:12:33.146Z,10.06
2022-10-09T08:15:20.714Z,9.99
2022-10-09T08:18:08.272Z,10.04
2022-10-09T08:20:55.821Z,10.15
2022-10-09T08:23:45.381Z,10.03
2022-10-09T08:26:32.925Z,10.30
2022-10-09T08:29:20.499Z,10.52
2022-10-09T08:32:08.031Z,10.44
2022-10-09T08:34:55.680Z,10.40
2022-10-09T08:37:43.216Z,10.56
2022-10-09T08:40:30.769Z,10.84
2022-10-09T08:43:18.324Z,10.82
2022-10-09T08:46:05.913Z,10.63
2022-10-09T08:48:53.529Z,10.58
2022-10-09T08:51:41.081Z,10.65
2022-10-09T08:54:28.733Z,10.45
2022-10-09T08:57:16.290Z,10.34
2022-10-09T09:00:03.862Z,10.54
2022-10-09T09:02:51.972Z,10.53
2022-10-09T09:05:40.031Z,10.60
2022-10-09T09:08:27.564Z,10.69
2022-10-09T09:11:18.185Z,11.05
2022-10-09T09:14:08.937Z,11.31
2022-10-09T09:16:56.494Z,11.49
2022-10-09T09:19:44.065Z,11.52
2022-10-09T09:22:31.608Z,11.58
2022-10-09T09:25:19.179Z,11.75
2022-10-09T09:28:10.147Z,11.44
2022-10-09T09:31:00.016Z,11.66
2022-10-09T09:33:47.579Z,11.82
2022-10-09T09:36:35.137Z,12.11
2022-10-09T09:40:23.751Z,12.31
2022-10-09T09:42:30.309Z,12.49
2022-10-09T09:45:17.848Z,12.81
2022-10-09T09:48:05.414Z,12.59
2022-10-09T09:51:10.126Z,12.49
2022-10-09T09:54:00.471Z,12.83
2022-10-09T09:59:55.526Z,13.16
2022-10-09T10:02:43.081Z,13.28
2022-10-09T10:05:30.638Z,12.76
2022-10-09T10:08:18.224Z,12.94
2022-10-09T10:11:05.775Z,13.02
2022-10-09T10:13:53.301Z,12.99
2022-10-09T10:16:40.938Z,13.11
2022-10-09T10:19:28.535Z,13.32
2022-10-09T10:22:16.098Z,13.12
2022-10-09T10:25:03.638Z,13.46
2022-10-09T10:27:51.835Z,12.99
2022-10-09T10:30:39.435Z,12.99
2022-10-09T10:33:27.005Z,13.14
2022-10-09T10:36:14.546Z,12.89
2022-10-09T10:39:02.110Z,12.93
2022-10-09T10:41:49.659Z,13.39
2022-10-09T10:44:37.248Z,12.81
2022-10-09T10:47:24.809Z,12.46
2022-10-09T10:50:12.479Z,12.34
2022-10-09T10:53:00.025Z,12.65
2022-10-09T10:55:47.582Z,12.68
2022-10-09T10:58:35.140Z,12.32
2022-10-09T11:01:22.786Z,12.64
2022-10-09T11:04:10.393Z,12.80
2022-10-09T11:06:57.974Z,13.38
2022-10-09T11:09:45.533Z,12.97
2022-10-09T11:12:47.340Z,13.12
2022-10-09T11:15:40.653Z,12.86
2022-10-09T11:18:28.220Z,13.19
2022-10-09T11:21:15.784Z,13.22
2022-10-09T11:24:03.346Z,12.99
2022-10-09T11:26:50.907Z,12.97
2022-10-09T11:29:38.556Z,13.73
2022-10-09T11:32:28.137Z,13.66
2022-10-09T11:35:15.844Z,13.66
2022-10-09T11:38:03.378Z,13.47
2022-10-09T11:40:51.025Z,13.93
2022-10-09T11:43:38.579Z,14.09
2022-10-09T11:46:26.149Z,14.19
2022-10-09T11:49:13.713Z,13.92
2022-10-09T11:52:01.269Z,13.42
2022-10-09T11:54:48.804Z,13.37
2022-10-09T11:57:36.470Z,13.81
2022-10-09T12:00:26.012Z,13.61
2022-10-09T12:03:13.589Z,13.13
2022-10-09T12:06:01.158Z,14.23
2022-10-09T12:08:48.736Z,15.02
2022-10-09T12:11:36.282Z,14.67
2022-10-09T12:14:23.842Z,14.89
2022-10-09T12:17:11.417Z,15.36
2022-10-09T12:20:01.241Z,13.83
2022-10-09T12:23:07.201Z,13.54
2022-10-09T12:25:56.452Z,13.09
2022-10-09T12:28:44.048Z,14.37
2022-10-09T12:31:31.702Z,14.67
2022-10-09T12:34:19.313Z,14.10
2022-10-09T12:37:06.852Z,14.93
2022-10-09T12:39:54.424Z,15.92
2022-10-09T12:42:41.959Z,16.38
2022-10-09T12:45:29.508Z,16.80
2022-10-09T12:48:17.065Z,17.01
2022-10-09T12:51:04.638Z,17.57
2022-10-09T12:53:52.176Z,17.21
2022-10-09T12:56:39.734Z,17.34
2022-10-09T12:59:27.317Z,17.87
2022-10-09T13:02:14.924Z,17.99
2022-10-09T13:05:02.668Z,18.42
2022-10-09T13:07:50.203Z,18.52
2022-10-09T13:10:37.766Z,18.73
2022-10-09T13:13:25.321Z,18.92
2022-10-09T13:16:12.908Z,17.87
2022-10-09T13:19:00.477Z,17.43
2022-10-09T13:21:48.035Z,16.86
2022-10-09T13:24:35.576Z,16.88
2022-10-09T13:27:23.135Z,16.57
2022-10-09T13:30:10.760Z,16.36
2022-10-09T13:32:58.381Z,16.74
2022-10-09T13:35:45.924Z,16.36
2022-10-09T13:38:35.089Z,17.03
2022-10-09T13:41:23.070Z,16.43
2022-10-09T13:44:10.648Z,16.23
2022-10-09T13:46:58.185Z,15.60
2022-10-09T13:49:45.756Z,15.99
2022-10-09T13:52:33.343Z,16.09
2022-10-09T13:55:20.946Z,16.02
2022-10-09T13:58:08.487Z,15.79
2022-10-09T14:00:56.053Z,15.96
2022-10-09T14:03:43.594Z,14.49
2022-10-09T14:06:31.252Z,14.43
2022-10-09T14:09:18.789Z,15.36
2022-10-09T14:12:06.357Z,15.55
2022-10-09T14:14:53.911Z,15.86
2022-10-09T14:17:41.530Z,15.28
2022-10-09T14:20:29.063Z,15.81
2022-10-09T14:23:16.625Z,15.15
2022-10-09T14:26:04.170Z,15.38
2022-10-09T14:28:51.787Z,15.24
2022-10-09T14:31:39.461Z,15.64
2022-10-09T14:34:27.122Z,15.72
2022-10-09T14:37:29.768Z,15.76
2022-10-09T14:40:24.216Z,15.63
2022-10-09T14:43:11.770Z,16.04
2022-10-09T14:45:59.333Z,16.48
2022-10-09T14:48:46.873Z,16.67
2022-10-09T14:51:36.794Z,16.68
2022-10-09T14:54:24.691Z,16.41
2022-10-09T14:57:12.251Z,16.66
2022-10-09T14:59:59.799Z,16.64
2022-10-09T15:02:47.385Z,16.67
2022-10-09T15:05:34.933Z,16.93
2022-10-09T15:08:22.510Z,17.13
2022-10-09T15:11:10.035Z,17.54
2022-10-09T15:13:57.600Z,17.70
2022-10-09T15:16:45.143Z,17.84
2022-10-09T15:19:32.695Z,17.50
2022-10-09T15:22:20.249Z,17.35
2022-10-09T15:25:07.802Z,17.83
2022-10-09T15:27:55.596Z,17.73
2022-10-09T15:30:43.477Z,17.89
2022-10-09T15:33:31.019Z,18.04
2022-10-09T15:36:18.681Z,18.37
2022-10-09T15:39:06.203Z,18.60
2022-10-09T15:41:53.773Z,18.64
2022-10-09T15:44:41.330Z,18.49
2022-10-09T15:47:50.038Z,18.91
2022-10-09T15:50:36.376Z,19.17
2022-10-09T15:53:23.970Z,19.20
2022-10-09T15:56:11.498Z,19.18
2022-10-09T15:58:59.159Z,19.32
2022-10-09T16:01:48.702Z,19.39
2022-10-09T16:04:36.404Z,19.31
2022-10-09T16:07:23.938Z,19.55
2022-10-09T16:10:11.613Z,19.57
2022-10-09T16:12:59.160Z,19.53
2022-10-09T16:15:46.716Z,19.04
2022-10-09T16:18:34.243Z,17.02
2022-10-09T16:21:21.808Z,16.66
2022-10-09T16:24:09.337Z,15.54
2022-10-09T16:26:56.921Z,15.25
2022-10-09T16:29:44.470Z,15.17
2022-10-09T16:32:32.039Z,14.78
2022-10-09T16:35:19.592Z,15.12
2022-10-09T16:38:07.163Z,14.76
2022-10-09T16:41:02.014Z,14.92
2022-10-09T16:43:50.317Z,15.06
2022-10-09T16:46:39.851Z,15.59
2022-10-09T16:49:27.411Z,15.73
2022-10-09T16:52:14.951Z,16.03
2022-10-09T16:55:02.519Z,15.94
2022-10-09T16:57:50.290Z,16.33
2022-10-09T17:00:38.078Z,16.55
2022-10-09T17:03:25.661Z,16.45
2022-10-09T17:06:13.310Z,16.41
2022-10-09T17:09:02.839Z,16.57
2022-10-09T17:11:50.505Z,16.77
2022-10-09T17:14:40.043Z,16.84
2022-10-09T17:17:27.641Z,16.95
2022-10-09T17:20:15.199Z,16.02
2022-10-09T17:23:02.752Z,15.51
2022-10-09T17:25:50.290Z,15.55
2022-10-09T17:28:37.909Z,15.31
2022-10-09T17:31:25.478Z,15.58
2022-10-09T17:34:13.044Z,15.25
2022-10-09T17:37:00.594Z,15.36
2022-10-09T17:39:51.991Z,15.84
2022-10-09T17:42:39.948Z,15.95
2022-10-09T17:45:27.503Z,15.98
2022-10-09T17:48:15.045Z,16.18
2022-10-09T17:51:02.606Z,16.27
2022-10-09T17:53:51.315Z,16.52
2022-10-09T17:56:38.938Z,16.71
2022-10-09T17:59:26.480Z,16.85
2022-10-09T18:02:14.068Z,17.05
2022-10-09T18:05:01.599Z,17.32
2022-10-09T18:07:49.307Z,17.29
2022-10-09T18:10:37.080Z,17.37
2022-10-09T18:13:24.642Z,17.46
2022-10-09T18:16:12.200Z,17.59
2022-10-09T18:18:59.752Z,17.71
2022-10-09T18:21:47.311Z,17.81
2022-10-09T18:24:34.873Z,17.90
2022-10-09T18:27:22.420Z,17.81
2022-10-09T18:30:09.968Z,17.65
2022-10-09T18:32:57.537Z,17.28
2022-10-09T18:35:45.096Z,16.33
2022-10-09T18:38:32.628Z,16.07
2022-10-09T18:41:20.187Z,15.53
2022-10-09T18:44:07.725Z,14.98
2022-10-09T18:46:55.271Z,14.78
2022-10-09T18:49:42.837Z,15.04
2022-10-09T18:52:30.497Z,15.53
2022-10-09T18:55:20.022Z,15.71
2022-10-09T18:58:07.584Z,15.81
2022-10-09T19:00:55.206Z,16.28
2022-10-09T19:03:45.979Z,16.61
2022-10-09T19:06:36.736Z,16.61
2022-10-09T19:09:24.308Z,16.61
2022-10-09T19:12:11.899Z,16.43
2022-10-09T19:14:59.455Z,15.94
2022-10-09T19:17:47.142Z,16.19
2022-10-09T19:20:34.818Z,15.54
2022-10-09T19:23:22.390Z,15.41
2022-10-09T19:26:09.942Z,15.16
2022-10-09T19:28:57.501Z,15.14
2022-10-09T19:31:45.048Z,15.35
2022-10-09T19:34:32.622Z,15.65
2022-10-09T19:37:20.154Z,15.47
2022-10-09T19:40:07.734Z,15.53
2022-10-09T19:42:55.302Z,15.96
2022-10-09T19:45:42.870Z,16.10
2022-10-09T19:48:30.426Z,16.19
2022-10-09T19:51:17.999Z,16.00
2022-10-09T19:54:05.555Z,15.97
2022-10-09T19:56:53.104Z,15.69
2022-10-09T19:59:40.664Z,15.63
2022-10-09T20:02:28.201Z,15.84
2022-10-09T20:05:15.762Z,16.16
2022-10-09T20:08:03.304Z,16.39
2022-10-09T20:10:50.886Z,16.49
2022-10-09T20:13:38.442Z,16.77
2022-10-09T20:16:26.001Z,16.75
2022-10-09T20:19:13.572Z,16.72
2022-10-09T20:22:01.202Z,16.71
2022-10-09T20:24:48.744Z,16.94
2022-10-09T20:27:36.333Z,16.91
2022-10-09T20:30:23.917Z,17.02
2022-10-09T20:33:11.479Z,17.10
2022-10-09T20:35:59.023Z,17.31
2022-10-09T20:38:46.582Z,17.48
2022-10-09T20:41:34.214Z,17.57
2022-10-09T20:44:21.798Z,17.67
2022-10-09T20:47:09.360Z,17.73
2022-10-09T20:49:57.076Z,17.78
2022-10-09T20:52:44.606Z,17.93
2022-10-09T20:55:32.214Z,17.85
2022-10-09T20:58:19.785Z,17.79
2022-10-09T21:01:07.375Z,17.92
2022-10-09T21:03:54.957Z,17.93
2022-10-09T21:06:42.525Z,17.99
2022-10-09T21:09:33.233Z,18.07
2022-10-09T21:12:21.129Z,18.03
2022-10-09T21:15:08.702Z,18.00
2022-10-09T21:17:56.327Z,18.14
2022-10-09T21:20:43.915Z,18.09
2022-10-09T21:23:31.505Z,18.12
2022-10-09T21:26:19.100Z,18.11
2022-10-09T21:29:06.660Z,18.12
2022-10-09T21:31:54.232Z,18.24
2022-10-09T21:34:42.981Z,18.32
2022-10-09T21:37:33.519Z,18.17
2022-10-09T21:40:23.143Z,18.39
2022-10-09T21:43:10.932Z,18.41
2022-10-09T21:45:58.500Z,18.42
2022-10-09T21:48:46.115Z,18.41
2022-10-09T21:51:33.699Z,18.33
2022-10-09T21:54:21.255Z,18.37
2022-10-09T21:57:08.828Z,18.41
2022-10-09T21:59:56.437Z,18.41
2022-10-09T22:02:43.998Z,18.35
2022-10-09T22:05:31.568Z,18.10
2022-10-09T22:08:19.162Z,18.15
2022-10-09T22:11:06.723Z,18.13
2022-10-09T22:13:54.284Z,17.79
2022-10-09T22:16:41.847Z,17.41
2022-10-09T22:19:29.416Z,17.51
2022-10-09T22:22:16.957Z,17.52
2022-10-09T22:25:04.541Z,17.64
2022-10-09T22:27:52.109Z,17.52
2022-10-09T22:30:39.663Z,17.67
2022-10-09T22:33:27.208Z,17.79
2022-10-09T22:36:14.876Z,17.89
2022-10-09T22:39:04.416Z,17.76
2022-10-09T22:41:51.970Z,17.74
2022-10-09T22:44:39.537Z,17.61
2022-10-09T22:47:27.122Z,17.77
2022-10-09T22:50:14.664Z,17.79
2022-10-09T22:53:02.213Z,17.83
2022-10-09T22:55:49.777Z,17.64
2022-10-09T22:58:37.343Z,17.85
2022-10-09T23:01:24.946Z,17.65
2022-10-09T23:04:12.557Z,17.62
2022-10-09T23:07:00.122Z,17.46
2022-10-09T23:09:47.688Z,17.50
2022-10-09T23:12:35.237Z,17.40
2022-10-09T23:15:22.806Z,17.35
2022-10-09T23:18:10.366Z,17.47
2022-10-09T23:20:57.958Z,17.44
2022-10-09T23:23:45.496Z,17.47
2022-10-09T23:26:33.053Z,17.58
2022-10-09T23:29:20.640Z,17.57
2022-10-09T23:32:08.189Z,17.57
2022-10-09T23:34:55.763Z,17.12
2022-10-09T23:37:43.323Z,16.90
2022-10-09T23:40:30.913Z,16.93
2022-10-09T23:43:18.465Z,16.92
2022-10-09T23:46:06.036Z,16.54
2022-10-09T23:48:53.605Z,16.46
2022-10-09T23:51:41.141Z,16.50
2022-10-09T23:54:28.708Z,16.46
2022-10-09T23:57:16.261Z,16.46
